Portada
METAR-TAF:

METAR-TAF

Aeroports :

Dhahran, Aràbia Saudita

latitud: 26-16N, longitud: 050-09E, altitud: 26 m

Observació

L'informe es va fer fa 54 minuts, a les 07:00 UTC
Vent 3 kt amb direcció variable
Temperatura 36°C
Humitat 15%
Pressió 1008 hPa
Visibilitat 10 km o més
sense núvols per sota de 1500 mi sense presència de cumulonimbus.

METAR: OEDR 080700Z VRB03KT CAVOK 36/05 Q1008

Hora: 10:54 (07:54 UTC)

Pronòstic

L'informe es va fer fa 5 hores i 54 minuts, a les 02:00 UTC
Pronòstic vàlid del 08 a les 06 UTC al 09 a les 12 UTC
Vent 13 kt del Nord
Visibilitat: 8000 m
Evolucionant progressivament
l' 08 a les 12 UTC al 08 a les 14 UTC
Vent 15 kt del Nord-Est
Evolucionant progressivament
l' 08 a les 18 UTC al 08 a les 20 UTC
Vent 5 kt amb direcció variable

TAF: OEDR 080200Z 0806/0912 35013KT 8000 NSC BECMG 0812/0814 04015KT BECMG 0818/0820 VRB05KT

Observacions i pronòstics meteorològics de més de 4000 aeroports (METAR i TAF).

Les estacions disponibles són els punts grocs i vermells al mapa.

Posi el ratolí al punt desitjat per veure el nom de l'estació.

Feu clic per veure les observacions i els pronòstics meteorològics.

Per canviar el mapa: feu clic els botons verds amb una creu de color negre per apropar; al botó verd amb un guió per allunyar la imatge; o en les fletxes verdes per a mapes adjacents.


METAR-TAF: